Accueil
METAR-TAF:

METAR-TAF

Aéroports :

Wemindji, Québec, Canada

latitude: 53-00-39N, longitude: 078-49-49W, altitude: 15 m

Observation

Le bulletin a été fait il y a 15 minutes, à 21:00 UTC
Vent 8 kt de nord/nord-ouest
Température -17°C
Humidité 77%
Pression 1030 hPa
Visibilité: 24.1 km
Nuages épars à une hauteur de 1000 ft

METAR: CYNC 232100Z 33008KT 15SM SCT010 M17/M20 A3042 RMK SC3 SF ASOCTD LAST STFD OBS/NEXT 241400UTC SLP306

Heure: 16:15 (21:15 UTC)


TAF: absent

Observations et prévisions météorologiques de plus de 4000 aéroports (messages METAR et TAF).

Les stations disponibles sont représentées par des disques jaunes et rouges sur la carte.

Passer la souris dessus pour voir le nom de la station.

Cliquer dessus pour voir les observations et prévisions météorologiques.

Pour changer de carte: cliquez sur les boutons verts avec une croix noire pour zoomer, sur le bouton vert avec un tiret pour effectuer un zoom arrière, ou sur les flèches vertes pour les cartes adjacentes.


METAR-TAF: